South Padre Island, Texas
Current Conditions -  °F | °C
As of 12:53 AM on Sunday 23 Nov 2014 (Local Time) from KPIL Reporting Station
Broken Clouds Broken Clouds  
Wind Chill: 62°   Ceiling: 3800
Heat Index: 62°   Visibility: 8mi
Dew Point: 62°   Wind: 7mph
Humidity: 100%   Direction: 140°SE
Pressure: 29.77"   Gusts: NA
Location:  26.1°N, 97.17°W
Report Text: KPIL 230653Z AUTO 14006KT 8SM SCT027 BKN038 17/17 A2977 RMK AO2 WSHFT 0548 LTG DSNT NE AND E RAE52 TSE13 SLP079 P0038 T01670167
Loading
Personal Weather Stations






























Interactive Weather Map New forecast layout! Learn more

10-Day Weather Forecast

Advertisements
Track Severe Weather on mobile